Terminal Aerodrome Forecast
Issued by NWS

Home | Current Version | Previous Version | Graphics & Text | Print | Product List | Glossary On
Versions: 1 2 3 4 5 6 7 8 9 10 11 12 13 14 15
687
FTUS43 KICT 071620 AAD
TAFSLN
TAF AMD
KSLN 071620Z 0716/0812 01013KT 4SM -SN SCT020 OVC035
      TEMPO 0716/0720 2SM -SN OVC018
     FM072000 01009KT P6SM OVC018
     FM080000 34007KT P6SM OVC035
     FM080300 30007KT P6SM SCT050=

USA.gov is the U.S. government's official web portal to all federal, state and local government web resources and services.